createdAt,value
2018-02-22T00:00:06.956Z,96215.09
2018-02-22T00:02:34.584Z,96211.59
2018-02-22T00:05:02.220Z,96214.05
2018-02-22T00:07:30.326Z,96212.64
2018-02-22T00:09:58.034Z,96210.11
2018-02-22T00:12:25.688Z,96211.84
2018-02-22T00:14:53.327Z,96205.15
2018-02-22T00:17:21.078Z,96197.94
2018-02-22T00:19:48.671Z,96206.34
2018-02-22T00:22:19.118Z,96193.67
2018-02-22T00:24:46.789Z,96196.55
2018-02-22T00:27:16.165Z,96193.16
2018-02-22T00:29:44.346Z,96195.09
2018-02-22T00:32:12.124Z,96193.53
2018-02-22T00:34:39.778Z,96189.06
2018-02-22T00:37:08.134Z,96186.92
2018-02-22T00:39:36.654Z,96185.62
2018-02-22T00:42:04.367Z,96184.05
2018-02-22T00:44:32.125Z,96182.53
2018-02-22T00:46:59.765Z,96172.38
2018-02-22T00:49:28.119Z,96173.88
2018-02-22T00:51:55.726Z,96172.64
2018-02-22T00:54:23.777Z,96166.94
2018-02-22T00:56:51.390Z,96166.98
2018-02-22T00:59:19.170Z,96166.03
2018-02-22T01:01:46.822Z,96159.50
2018-02-22T01:04:14.427Z,96159.81
2018-02-22T01:06:42.835Z,96162.58
2018-02-22T01:09:11.736Z,96153.22
2018-02-22T01:11:39.303Z,96160.86
2018-02-22T01:14:07.022Z,96157.98
2018-02-22T01:16:34.677Z,96159.09
2018-02-22T01:19:02.232Z,96146.09
2018-02-22T01:21:30.270Z,96154.68
2018-02-22T01:23:57.981Z,96154.68
2018-02-22T01:26:25.604Z,96152.33
2018-02-22T01:28:53.198Z,96153.78
2018-02-22T01:31:20.835Z,96153.84
2018-02-22T01:33:48.529Z,96146.61
2018-02-22T01:36:16.075Z,96138.52
2018-02-22T01:38:43.722Z,96139.46
2018-02-22T01:41:11.732Z,96142.59
2018-02-22T01:43:39.354Z,96136.14
2018-02-22T01:46:07.000Z,96137.92
2018-02-22T01:48:34.583Z,96133.17
2018-02-22T01:51:02.222Z,96126.41
2018-02-22T01:53:30.461Z,96123.70
2018-02-22T01:55:58.085Z,96127.92
2018-02-22T01:58:25.717Z,96134.00
2018-02-22T02:00:53.349Z,96122.80
2018-02-22T02:03:20.989Z,96123.34
2018-02-22T02:05:48.601Z,96126.73
2018-02-22T02:08:16.199Z,96122.23
2018-02-22T02:10:43.786Z,96116.98
2018-02-22T02:13:11.881Z,96122.49
2018-02-22T02:15:40.126Z,96120.08
2018-02-22T02:18:07.827Z,96112.91
2018-02-22T02:20:35.422Z,96119.09
2018-02-22T02:23:02.994Z,96116.85
2018-02-22T02:25:30.844Z,96123.23
2018-02-22T02:28:04.283Z,96118.98
2018-02-22T02:30:31.922Z,96117.22
2018-02-22T02:32:59.543Z,96113.39
2018-02-22T02:35:27.179Z,96112.91
2018-02-22T02:37:54.793Z,96104.39
2018-02-22T02:40:22.458Z,96105.13
2018-02-22T02:42:50.052Z,96104.02
2018-02-22T02:45:18.138Z,96104.19
2018-02-22T02:47:45.789Z,96102.88
2018-02-22T02:50:13.701Z,96104.50
2018-02-22T02:52:41.327Z,96093.93
2018-02-22T02:55:09.948Z,96095.39
2018-02-22T02:57:37.545Z,96087.80
2018-02-22T03:00:05.485Z,96094.71
2018-02-22T03:02:33.159Z,96096.96
2018-02-22T03:05:01.685Z,96089.01
2018-02-22T03:07:30.460Z,96089.11
2018-02-22T03:10:03.444Z,96085.86
2018-02-22T03:12:32.732Z,96089.06
2018-02-22T03:15:00.491Z,96076.30
2018-02-22T03:17:28.637Z,96073.21
2018-02-22T03:19:58.247Z,96068.93
2018-02-22T03:22:26.304Z,96069.30
2018-02-22T03:24:53.978Z,96065.64
2018-02-22T03:27:21.621Z,96068.87
2018-02-22T03:29:49.749Z,96064.16
2018-02-22T03:32:32.761Z,96053.39
2018-02-22T03:35:00.386Z,96049.77
2018-02-22T03:37:29.212Z,96047.32
2018-02-22T03:39:56.924Z,96044.64
2018-02-22T03:42:24.679Z,96044.05
2018-02-22T03:44:55.462Z,96045.02
2018-02-22T03:47:23.166Z,96050.98
2018-02-22T03:49:50.741Z,96045.16
2018-02-22T03:52:18.377Z,96045.96
2018-02-22T03:54:45.992Z,96051.08
2018-02-22T03:57:14.062Z,96051.09
2018-02-22T03:59:41.673Z,96046.13
2018-02-22T04:02:09.540Z,96047.74
2018-02-22T04:04:37.138Z,96048.93
2018-02-22T04:07:04.824Z,96046.86
2018-02-22T04:09:32.406Z,96041.73
2018-02-22T04:14:31.876Z,96044.72
2018-02-22T04:16:59.452Z,96039.91
2018-02-22T04:19:28.146Z,96045.97
2018-02-22T04:21:56.172Z,96039.28
2018-02-22T04:24:25.243Z,96039.39
2018-02-22T04:26:52.832Z,96045.60
2018-02-22T04:29:20.724Z,96043.67
2018-02-22T04:31:48.334Z,96043.14
2018-02-22T04:34:15.913Z,96043.98
2018-02-22T04:36:43.474Z,96056.17
2018-02-22T04:39:12.046Z,96042.89
2018-02-22T04:44:29.708Z,96048.47
2018-02-22T04:46:57.321Z,96046.48
2018-02-22T04:49:26.093Z,96045.91
2018-02-22T04:51:53.684Z,96054.08
2018-02-22T04:54:22.313Z,96050.26
2018-02-22T04:56:49.904Z,96057.64
2018-02-22T04:59:18.374Z,96061.50
2018-02-22T05:01:45.947Z,96059.52
2018-02-22T05:04:13.585Z,96056.08
2018-02-22T05:06:41.280Z,96056.53
2018-02-22T05:09:09.305Z,96059.94
2018-02-22T05:11:37.305Z,96055.86
2018-02-22T05:14:04.971Z,96056.53
2018-02-22T05:16:32.554Z,96057.10
2018-02-22T05:19:00.169Z,96050.73
2018-02-22T05:21:27.773Z,96054.91
2018-02-22T05:23:55.353Z,96054.13
2018-02-22T05:26:24.307Z,96050.20
2018-02-22T05:28:51.891Z,96050.48
2018-02-22T05:31:19.788Z,96048.79
2018-02-22T05:33:47.377Z,96049.53
2018-02-22T05:36:14.980Z,96050.48
2018-02-22T05:38:42.577Z,96046.34
2018-02-22T05:41:11.616Z,96047.01
2018-02-22T05:43:40.470Z,96048.86
2018-02-22T05:46:08.261Z,96048.64
2018-02-22T05:48:35.916Z,96051.26
2018-02-22T05:51:03.588Z,96053.49
2018-02-22T05:53:31.961Z,96051.52
2018-02-22T05:55:59.629Z,96053.49
2018-02-22T05:58:27.218Z,96059.35
2018-02-22T06:00:54.808Z,96056.95
2018-02-22T06:03:23.762Z,96054.55
2018-02-22T06:05:51.342Z,96055.47
2018-02-22T06:08:18.940Z,96054.23
2018-02-22T06:10:46.829Z,96032.53
2018-02-22T06:13:14.419Z,96058.09
2018-02-22T06:15:42.016Z,96053.71
2018-02-22T06:18:10.090Z,96057.96
2018-02-22T06:20:37.694Z,96063.48
2018-02-22T06:23:05.319Z,96057.00
2018-02-22T06:25:33.669Z,96059.42
2018-02-22T06:28:01.265Z,96055.66
2018-02-22T06:30:29.038Z,96061.14
2018-02-22T06:32:56.841Z,96057.27
2018-02-22T06:35:24.512Z,96054.70
2018-02-22T06:37:52.144Z,96050.30
2018-02-22T06:40:19.863Z,96060.81
2018-02-22T06:42:47.468Z,96047.01
2018-02-22T06:45:15.972Z,96050.88
2018-02-22T06:47:43.589Z,96057.47
2018-02-22T06:50:11.202Z,96051.77
2018-02-22T06:52:39.288Z,96052.35
2018-02-22T06:55:07.649Z,96054.06
2018-02-22T06:57:37.601Z,96061.28
2018-02-22T07:00:05.756Z,96069.81
2018-02-22T07:02:37.338Z,96059.89
2018-02-22T07:05:05.735Z,96062.91
2018-02-22T07:07:33.821Z,96064.75
2018-02-22T07:10:02.882Z,96072.69
2018-02-22T07:12:32.077Z,96062.74
2018-02-22T07:14:59.720Z,96077.39
2018-02-22T07:17:30.807Z,96068.39
2018-02-22T07:19:58.469Z,96071.99
2018-02-22T07:22:32.111Z,96068.07
2018-02-22T07:24:59.986Z,96075.36
2018-02-22T07:27:27.612Z,96080.69
2018-02-22T07:29:57.984Z,96076.51
2018-02-22T07:32:26.211Z,96064.98
2018-02-22T07:34:56.362Z,96073.83
2018-02-22T07:37:24.183Z,96081.22
2018-02-22T07:39:51.823Z,96084.25
2018-02-22T07:42:21.604Z,96079.50
2018-02-22T07:44:49.578Z,96076.63
2018-02-22T07:47:21.393Z,96082.85
2018-02-22T07:49:49.036Z,96076.83
2018-02-22T07:52:16.668Z,96085.50
2018-02-22T07:54:44.311Z,96089.52
2018-02-22T07:57:12.948Z,96086.58
2018-02-22T07:59:42.643Z,96077.49
2018-02-22T08:02:10.315Z,96080.81
2018-02-22T08:04:37.971Z,96082.06
2018-02-22T08:07:05.866Z,96080.22
2018-02-22T08:09:34.559Z,96079.63
2018-02-22T08:12:02.412Z,96086.08
2018-02-22T08:14:30.009Z,96073.53
2018-02-22T08:16:57.633Z,96077.58
2018-02-22T08:19:25.922Z,96076.47
2018-02-22T08:21:53.538Z,96084.88
2018-02-22T08:24:22.057Z,96082.34
2018-02-22T08:26:49.688Z,96080.60
2018-02-22T08:29:17.863Z,96081.30
2018-02-22T08:31:46.088Z,96083.41
2018-02-22T08:34:13.691Z,96085.44
2018-02-22T08:36:41.374Z,96074.01
2018-02-22T08:39:09.116Z,96071.04
2018-02-22T08:41:36.770Z,96072.92
2018-02-22T08:44:04.453Z,96071.27
2018-02-22T08:46:32.081Z,96072.16
2018-02-22T08:48:59.715Z,96065.65
2018-02-22T08:54:18.037Z,96062.88
2018-02-22T08:56:45.928Z,96066.50
2018-02-22T08:59:13.558Z,96059.59
2018-02-22T09:01:41.284Z,96058.64
2018-02-22T09:04:09.009Z,96059.75
2018-02-22T09:06:36.703Z,96056.38
2018-02-22T09:09:06.082Z,96055.55
2018-02-22T09:11:33.956Z,96060.98
2018-02-22T09:14:01.734Z,96066.23
2018-02-22T09:16:29.309Z,96069.89
2018-02-22T09:18:56.916Z,96069.38
2018-02-22T09:21:25.358Z,96071.80
2018-02-22T09:23:52.970Z,96066.70
2018-02-22T09:26:20.638Z,96079.44
2018-02-22T09:28:48.232Z,96076.44
2018-02-22T09:31:15.835Z,96075.66
2018-02-22T09:33:43.534Z,96077.81
2018-02-22T09:36:11.306Z,96071.25
2018-02-22T09:38:38.931Z,96077.95
2018-02-22T09:41:06.649Z,96076.14
2018-02-22T09:43:34.928Z,96078.72
2018-02-22T09:46:02.579Z,96079.81
2018-02-22T09:48:30.401Z,96078.34
2018-02-22T09:50:58.004Z,96080.77
2018-02-22T09:53:25.589Z,96077.83
2018-02-22T09:55:55.108Z,96076.57
2018-02-22T09:58:24.547Z,96078.54
2018-02-22T10:00:52.189Z,96082.16
2018-02-22T10:03:19.914Z,96071.81
2018-02-22T10:05:47.496Z,96074.44
2018-02-22T10:08:15.103Z,96077.02
2018-02-22T10:10:42.719Z,96088.36
2018-02-22T10:13:11.541Z,96081.25
2018-02-22T10:15:39.758Z,96075.81
2018-02-22T10:18:07.340Z,96087.61
2018-02-22T10:20:35.768Z,96087.09
2018-02-22T10:23:03.455Z,96086.88
2018-02-22T10:25:31.821Z,96091.95
2018-02-22T10:27:59.438Z,96087.81
2018-02-22T10:30:27.241Z,96091.73
2018-02-22T10:32:54.823Z,96082.98
2018-02-22T10:35:23.063Z,96071.92
2018-02-22T10:37:50.816Z,96084.89
2018-02-22T10:40:18.652Z,96082.81
2018-02-22T10:42:46.268Z,96079.88
2018-02-22T10:45:14.460Z,96079.23
2018-02-22T10:47:42.062Z,96078.98
2018-02-22T10:50:09.685Z,96075.05
2018-02-22T10:52:37.319Z,96079.77
2018-02-22T10:55:04.933Z,96082.86
2018-02-22T10:57:34.326Z,96076.18
2018-02-22T11:00:01.974Z,96071.00
2018-02-22T11:05:27.602Z,96072.46
2018-02-22T11:07:55.179Z,96077.48
2018-02-22T11:10:22.794Z,96073.84
2018-02-22T11:12:51.454Z,96078.19
2018-02-22T11:15:19.300Z,96075.19
2018-02-22T11:17:48.235Z,96071.30
2018-02-22T11:20:16.156Z,96073.80
2018-02-22T11:22:46.450Z,96077.61
2018-02-22T11:25:15.158Z,96070.64
2018-02-22T11:27:44.729Z,96073.11
2018-02-22T11:30:13.914Z,96069.16
2018-02-22T11:32:41.657Z,96066.27
2018-02-22T11:35:09.718Z,96071.16
2018-02-22T11:37:39.199Z,96065.94
2018-02-22T11:40:07.376Z,96080.32
2018-02-22T11:42:35.465Z,96062.58
2018-02-22T11:45:03.820Z,96064.61
2018-02-22T11:47:31.471Z,96061.13
2018-02-22T11:49:59.160Z,96053.05
2018-02-22T11:52:26.752Z,96069.52
2018-02-22T11:54:54.430Z,96056.18
2018-02-22T11:57:22.959Z,95960.97
2018-02-22T11:59:50.614Z,96062.30
2018-02-22T12:02:18.177Z,96064.81
2018-02-22T12:04:46.021Z,96059.25
2018-02-22T12:07:13.657Z,96059.52
2018-02-22T12:09:41.269Z,96059.93
2018-02-22T12:12:08.866Z,96072.42
2018-02-22T12:14:36.442Z,96058.38
2018-02-22T12:17:04.032Z,96060.15
2018-02-22T12:19:31.619Z,96057.62
2018-02-22T12:21:59.233Z,96054.83
2018-02-22T12:24:26.968Z,96051.61
2018-02-22T12:26:54.550Z,96039.09
2018-02-22T12:29:22.152Z,96042.55
2018-02-22T12:31:49.789Z,96043.68
2018-02-22T12:34:17.378Z,96046.57
2018-02-22T12:36:44.959Z,96037.67
2018-02-22T12:39:12.574Z,96037.59
2018-02-22T12:41:40.192Z,96038.98
2018-02-22T12:44:07.765Z,96032.28
2018-02-22T12:46:35.391Z,96037.51
2018-02-22T12:49:03.028Z,96036.53
2018-02-22T12:51:30.640Z,96037.22
2018-02-22T12:53:58.240Z,96037.36
2018-02-22T12:56:25.805Z,96037.25
2018-02-22T12:58:53.980Z,96035.25
2018-02-22T13:01:22.166Z,96033.68
2018-02-22T13:03:49.767Z,96032.95
2018-02-22T13:06:17.501Z,96028.00
2018-02-22T13:08:45.082Z,96024.11
2018-02-22T13:11:13.653Z,96022.66
2018-02-22T13:13:41.219Z,96025.73
2018-02-22T13:16:09.062Z,96027.05
2018-02-22T13:18:36.706Z,96023.69
2018-02-22T13:21:04.552Z,96029.08
2018-02-22T13:23:32.373Z,96022.08
2018-02-22T13:26:00.002Z,96022.00
2018-02-22T13:28:29.567Z,96032.17
2018-02-22T13:30:57.223Z,96023.70
2018-02-22T13:33:36.761Z,96032.83
2018-02-22T13:36:04.576Z,96027.42
2018-02-22T13:38:43.995Z,96031.72
2018-02-22T13:41:12.251Z,96026.34
2018-02-22T13:43:40.196Z,96025.18
2018-02-22T13:46:07.888Z,96021.14
2018-02-22T13:48:47.237Z,96015.69
2018-02-22T13:51:14.858Z,96024.86
2018-02-22T13:53:43.112Z,96016.16
2018-02-22T13:56:23.706Z,96015.05
2018-02-22T13:58:51.395Z,96019.53
2018-02-22T14:01:30.672Z,96018.70
2018-02-22T14:03:58.250Z,96012.19
2018-02-22T14:06:26.389Z,96017.08
2018-02-22T14:08:53.961Z,96011.83
2018-02-22T14:11:21.547Z,96014.98
2018-02-22T14:13:49.110Z,96015.03
2018-02-22T14:16:16.685Z,96021.48
2018-02-22T14:18:44.373Z,96019.95
2018-02-22T14:21:12.924Z,96017.50
2018-02-22T14:23:40.508Z,96020.81
2018-02-22T14:26:08.156Z,96017.05
2018-02-22T14:28:35.724Z,96011.51
2018-02-22T14:31:03.339Z,96015.47
2018-02-22T14:33:35.039Z,96015.05
2018-02-22T14:36:02.764Z,96010.99
2018-02-22T14:38:30.398Z,96026.70
2018-02-22T14:40:57.980Z,96030.63
2018-02-22T14:43:26.517Z,96029.52
2018-02-22T14:45:54.132Z,96039.13
2018-02-22T14:48:21.754Z,96036.80
2018-02-22T14:50:49.619Z,96033.29
2018-02-22T14:53:17.175Z,96037.87
2018-02-22T14:55:45.614Z,96032.66
2018-02-22T14:58:13.462Z,96037.66
2018-02-22T15:00:47.939Z,96032.38
2018-02-22T15:03:15.513Z,96040.45
2018-02-22T15:05:52.860Z,96041.80
2018-02-22T15:08:20.482Z,96041.94
2018-02-22T15:10:48.235Z,96045.58
2018-02-22T15:13:16.247Z,96041.20
2018-02-22T15:15:44.771Z,96049.89
2018-02-22T15:18:12.671Z,96048.24
2018-02-22T15:20:40.296Z,96050.34
2018-02-22T15:23:08.240Z,96056.43
2018-02-22T15:25:36.731Z,96046.88
2018-02-22T15:28:07.166Z,96054.38
2018-02-22T15:30:37.859Z,96058.37
2018-02-22T15:33:05.724Z,96063.92
2018-02-22T15:35:33.846Z,96065.46
2018-02-22T15:38:08.576Z,96075.16
2018-02-22T15:40:42.355Z,96070.49
2018-02-22T15:43:10.308Z,96071.98
2018-02-22T15:45:38.412Z,96076.54
2018-02-22T15:48:10.281Z,96077.17
2018-02-22T15:50:38.018Z,96085.73
2018-02-22T15:53:05.753Z,96079.56
2018-02-22T15:55:35.391Z,96084.23
2018-02-22T15:58:03.051Z,96084.11
2018-02-22T16:00:34.447Z,96084.91
2018-02-22T16:03:02.063Z,96085.27
2018-02-22T16:05:30.696Z,96073.66
2018-02-22T16:07:58.532Z,96092.52
2018-02-22T16:10:26.195Z,96100.96
2018-02-22T16:12:53.809Z,96093.09
2018-02-22T16:15:21.780Z,96086.47
2018-02-22T16:17:49.400Z,96078.14
2018-02-22T16:20:17.019Z,96071.67
2018-02-22T16:22:44.630Z,96070.00
2018-02-22T16:25:13.007Z,96069.08
2018-02-22T16:27:40.834Z,96074.13
2018-02-22T16:30:08.449Z,96072.32
2018-02-22T16:32:36.112Z,96073.65
2018-02-22T16:37:36.774Z,96084.46
2018-02-22T16:40:04.540Z,96083.19
2018-02-22T16:42:32.165Z,96086.72
2018-02-22T16:45:00.026Z,96086.48
2018-02-22T16:47:29.892Z,96087.16
2018-02-22T16:49:57.601Z,96089.67
2018-02-22T16:52:26.961Z,96093.22
2018-02-22T16:54:54.765Z,96099.23
2018-02-22T16:57:30.195Z,96108.45
2018-02-22T16:59:58.266Z,96108.13
2018-02-22T17:02:26.127Z,96106.17
2018-02-22T17:04:53.855Z,96101.61
2018-02-22T17:07:21.513Z,96108.06
2018-02-22T17:09:49.212Z,96103.39
2018-02-22T17:12:17.053Z,96123.72
2018-02-22T17:14:44.654Z,96115.27
2018-02-22T17:17:13.873Z,96118.16
2018-02-22T17:19:41.554Z,96115.88
2018-02-22T17:22:10.072Z,96112.36
2018-02-22T17:24:38.184Z,96115.46
2018-02-22T17:27:12.121Z,96087.96
2018-02-22T17:29:45.288Z,96118.31
2018-02-22T17:32:18.322Z,96117.22
2018-02-22T17:34:46.016Z,96119.83
2018-02-22T17:37:18.924Z,96122.72
2018-02-22T17:42:53.222Z,96128.27
2018-02-22T17:45:21.744Z,96126.88
2018-02-22T17:47:49.565Z,96128.37
2018-02-22T17:50:17.399Z,96124.73
2018-02-22T17:52:45.080Z,96123.43
2018-02-22T17:55:13.932Z,96126.27
2018-02-22T17:57:41.599Z,96127.77
2018-02-22T18:00:09.346Z,96119.33
2018-02-22T18:02:37.228Z,96129.50
2018-02-22T18:05:04.963Z,96134.48
2018-02-22T18:07:33.608Z,96135.75
2018-02-22T18:10:03.069Z,96137.00
2018-02-22T18:12:30.786Z,96136.73
2018-02-22T18:14:58.443Z,96135.63
2018-02-22T18:17:26.844Z,96134.70
2018-02-22T18:19:54.576Z,96136.12
2018-02-22T18:22:23.634Z,96147.88
2018-02-22T18:24:51.276Z,96152.37
2018-02-22T18:27:19.194Z,96159.44
2018-02-22T18:29:48.765Z,96160.08
2018-02-22T18:32:16.462Z,96157.45
2018-02-22T18:34:44.072Z,96160.99
2018-02-22T18:37:17.721Z,96148.33
2018-02-22T18:39:45.591Z,96153.47
2018-02-22T18:42:18.757Z,96156.24
2018-02-22T18:44:51.984Z,96157.39
2018-02-22T18:47:19.927Z,96156.72
2018-02-22T18:49:47.639Z,96152.84
2018-02-22T18:52:15.389Z,96157.66
2018-02-22T18:54:43.023Z,96160.91
2018-02-22T18:57:11.094Z,96161.17
2018-02-22T18:59:38.867Z,96159.59
2018-02-22T19:02:06.485Z,96158.86
2018-02-22T19:04:35.453Z,96157.13
2018-02-22T19:07:03.481Z,96159.09
2018-02-22T19:09:31.105Z,96161.94
2018-02-22T19:11:58.838Z,96155.24
2018-02-22T19:14:26.459Z,96155.08
2018-02-22T19:16:54.184Z,96155.96
2018-02-22T19:19:22.017Z,96155.91
2018-02-22T19:21:49.684Z,96162.06
2018-02-22T19:24:17.357Z,96154.08
2018-02-22T19:26:46.376Z,96143.25
2018-02-22T19:29:14.177Z,96144.05
2018-02-22T19:31:41.953Z,96145.95
2018-02-22T19:34:09.614Z,96142.61
2018-02-22T19:36:37.217Z,96141.86
2018-02-22T19:39:04.938Z,96145.94
2018-02-22T19:41:33.042Z,96137.77
2018-02-22T19:44:01.019Z,96143.90
2018-02-22T19:46:28.667Z,96139.91
2018-02-22T19:49:15.279Z,96120.35
2018-02-22T19:51:42.898Z,96132.42
2018-02-22T19:54:10.502Z,96126.53
2018-02-22T19:56:38.428Z,96134.80
2018-02-22T19:59:06.034Z,96132.38
2018-02-22T20:01:33.921Z,96126.95
2018-02-22T20:04:01.830Z,96120.41
2018-02-22T20:06:29.721Z,96115.67
2018-02-22T20:08:57.570Z,96120.41
2018-02-22T20:11:25.285Z,96119.39
2018-02-22T20:13:53.011Z,96110.74
2018-02-22T20:16:21.053Z,96115.94
2018-02-22T20:18:48.753Z,96111.72
2018-02-22T20:21:17.142Z,96114.42
2018-02-22T20:23:45.000Z,96120.31
2018-02-22T20:26:12.978Z,96114.61
2018-02-22T20:28:40.644Z,96119.30
2018-02-22T20:31:11.578Z,96119.17
2018-02-22T20:33:39.224Z,96118.66
2018-02-22T20:36:06.880Z,96108.44
2018-02-22T20:38:35.533Z,96122.92
2018-02-22T20:41:05.356Z,96099.19
2018-02-22T20:43:33.603Z,96116.33
2018-02-22T20:46:01.289Z,96125.89
2018-02-22T20:48:29.005Z,96110.11
2018-02-22T20:51:01.373Z,96123.48
2018-02-22T20:53:33.185Z,96131.13
2018-02-22T20:56:01.034Z,96113.45
2018-02-22T20:58:28.924Z,96136.90
2018-02-22T21:00:56.651Z,96128.82
2018-02-22T21:03:25.352Z,96130.81
2018-02-22T21:05:53.150Z,96129.47
2018-02-22T21:08:21.100Z,96135.45
2018-02-22T21:10:48.915Z,96139.53
2018-02-22T21:13:17.760Z,96138.23
2018-02-22T21:15:45.440Z,96142.38
2018-02-22T21:18:13.267Z,96143.58
2018-02-22T21:20:40.867Z,96154.96
2018-02-22T21:23:08.502Z,96140.20
2018-02-22T21:25:36.139Z,96145.63
2018-02-22T21:28:03.750Z,96143.04
2018-02-22T21:30:31.956Z,96144.56
2018-02-22T21:32:59.617Z,96143.22
2018-02-22T21:35:28.453Z,96144.89
2018-02-22T21:37:56.099Z,96126.12
2018-02-22T21:40:23.788Z,96143.96
2018-02-22T21:42:51.487Z,96146.06
2018-02-22T21:45:19.165Z,96149.22
2018-02-22T21:47:46.828Z,96147.83
2018-02-22T21:50:21.956Z,96154.59
2018-02-22T21:52:49.641Z,96150.32
2018-02-22T21:55:17.272Z,96149.20
2018-02-22T21:57:45.952Z,96148.93
2018-02-22T22:00:14.143Z,96144.70
2018-02-22T22:02:41.819Z,96148.05
2018-02-22T22:05:10.926Z,96148.84
2018-02-22T22:07:38.847Z,96142.20
2018-02-22T22:10:06.454Z,96143.59
2018-02-22T22:12:34.218Z,96133.23
2018-02-22T22:15:01.889Z,96136.95
2018-02-22T22:17:30.439Z,96133.15
2018-02-22T22:19:58.159Z,96128.55
2018-02-22T22:22:25.791Z,96128.03
2018-02-22T22:24:53.393Z,96119.91
2018-02-22T22:27:21.019Z,96131.75
2018-02-22T22:29:48.696Z,96129.48
2018-02-22T22:32:16.684Z,96124.92
2018-02-22T22:34:44.320Z,96133.80
2018-02-22T22:37:13.000Z,96130.17
2018-02-22T22:39:40.848Z,96132.53
2018-02-22T22:42:08.814Z,96133.70
2018-02-22T22:44:36.558Z,96124.08
2018-02-22T22:47:04.274Z,96135.00
2018-02-22T22:49:32.059Z,96137.22
2018-02-22T22:51:59.854Z,96130.68
2018-02-22T22:54:27.554Z,96127.42
2018-02-22T22:56:55.260Z,96126.22
2018-02-22T22:59:23.255Z,96128.81
2018-02-22T23:01:57.736Z,96118.33
2018-02-22T23:04:25.903Z,96112.80
2018-02-22T23:06:54.390Z,96112.52
2018-02-22T23:09:29.143Z,96121.11
2018-02-22T23:11:56.906Z,96120.36
2018-02-22T23:14:25.354Z,96116.89
2018-02-22T23:16:53.094Z,96113.83
2018-02-22T23:19:20.728Z,96115.72
2018-02-22T23:21:48.353Z,96113.03
2018-02-22T23:24:16.210Z,96115.55
2018-02-22T23:26:44.168Z,96114.33
2018-02-22T23:29:13.593Z,96112.62
2018-02-22T23:31:41.594Z,96109.09
2018-02-22T23:34:09.627Z,96110.33
2018-02-22T23:36:37.247Z,96109.27
2018-02-22T23:39:05.117Z,96104.39
2018-02-22T23:41:39.118Z,96106.52
2018-02-22T23:44:06.836Z,96099.89
2018-02-22T23:46:34.566Z,96098.73
2018-02-22T23:49:02.212Z,96107.88
2018-02-22T23:51:29.913Z,96099.98
2018-02-22T23:53:59.454Z,96104.58
2018-02-22T23:56:27.170Z,96101.24
2018-02-22T23:58:55.685Z,96104.11
